sensor_id;sensor_type;location;lat;lon;timestamp;temperature;humidity
21403;DHT22;10862;51.886;17.078;2023-12-28T00:00:17;3.20;1.00
21403;DHT22;10862;51.886;17.078;2023-12-28T00:02:43;3.30;1.00
21403;DHT22;10862;51.886;17.078;2023-12-28T00:05:09;3.30;1.00
21403;DHT22;10862;51.886;17.078;2023-12-28T00:07:34;3.30;1.00
21403;DHT22;10862;51.886;17.078;2023-12-28T00:10:01;3.40;1.00
21403;DHT22;10862;51.886;17.078;2023-12-28T00:12:27;3.40;1.00
21403;DHT22;10862;51.886;17.078;2023-12-28T00:14:53;3.40;99.90
21403;DHT22;10862;51.886;17.078;2023-12-28T00:17:19;3.40;1.00
21403;DHT22;10862;51.886;17.078;2023-12-28T00:19:44;3.40;1.00
21403;DHT22;10862;51.886;17.078;2023-12-28T00:22:10;3.40;1.00
21403;DHT22;10862;51.886;17.078;2023-12-28T00:24:36;3.40;1.00
21403;DHT22;10862;51.886;17.078;2023-12-28T00:27:01;3.50;1.00
21403;DHT22;10862;51.886;17.078;2023-12-28T00:29:27;3.40;1.00
21403;DHT22;10862;51.886;17.078;2023-12-28T00:31:54;3.40;1.00
21403;DHT22;10862;51.886;17.078;2023-12-28T00:34:20;3.40;1.00
21403;DHT22;10862;51.886;17.078;2023-12-28T00:36:45;3.40;99.90
21403;DHT22;10862;51.886;17.078;2023-12-28T00:39:11;3.40;99.90
21403;DHT22;10862;51.886;17.078;2023-12-28T00:41:37;3.40;99.90
21403;DHT22;10862;51.886;17.078;2023-12-28T00:44:02;3.40;99.90
21403;DHT22;10862;51.886;17.078;2023-12-28T00:46:28;3.40;99.90
21403;DHT22;10862;51.886;17.078;2023-12-28T00:48:54;3.40;99.90
21403;DHT22;10862;51.886;17.078;2023-12-28T00:51:20;3.30;1.00
21403;DHT22;10862;51.886;17.078;2023-12-28T00:53:46;3.30;1.00
21403;DHT22;10862;51.886;17.078;2023-12-28T00:56:12;3.30;1.00
21403;DHT22;10862;51.886;17.078;2023-12-28T00:58:41;3.30;1.00
21403;DHT22;10862;51.886;17.078;2023-12-28T01:01:08;3.20;1.00
21403;DHT22;10862;51.886;17.078;2023-12-28T01:03:34;3.20;1.00
21403;DHT22;10862;51.886;17.078;2023-12-28T01:06:00;3.20;1.00
21403;DHT22;10862;51.886;17.078;2023-12-28T01:08:25;3.20;1.00
21403;DHT22;10862;51.886;17.078;2023-12-28T01:10:51;3.30;7.70
21403;DHT22;10862;51.886;17.078;2023-12-28T01:13:17;3.20;47.50
21403;DHT22;10862;51.886;17.078;2023-12-28T01:15:42;3.20;91.40
21403;DHT22;10862;51.886;17.078;2023-12-28T01:18:08;3.20;92.40
21403;DHT22;10862;51.886;17.078;2023-12-28T01:20:34;3.30;99.90
21403;DHT22;10862;51.886;17.078;2023-12-28T01:23:00;3.30;99.90
21403;DHT22;10862;51.886;17.078;2023-12-28T01:25:26;3.20;99.90
21403;DHT22;10862;51.886;17.078;2023-12-28T01:27:52;3.20;99.90
21403;DHT22;10862;51.886;17.078;2023-12-28T01:30:17;3.20;99.90
21403;DHT22;10862;51.886;17.078;2023-12-28T01:32:43;3.30;99.90
21403;DHT22;10862;51.886;17.078;2023-12-28T01:35:08;3.20;99.90
21403;DHT22;10862;51.886;17.078;2023-12-28T01:37:34;3.20;99.90
21403;DHT22;10862;51.886;17.078;2023-12-28T01:40:00;3.20;99.90
21403;DHT22;10862;51.886;17.078;2023-12-28T01:42:26;3.20;99.90
21403;DHT22;10862;51.886;17.078;2023-12-28T01:44:52;3.20;99.90
21403;DHT22;10862;51.886;17.078;2023-12-28T01:47:18;3.30;1.00
21403;DHT22;10862;51.886;17.078;2023-12-28T01:49:44;3.30;1.00
21403;DHT22;10862;51.886;17.078;2023-12-28T01:52:10;3.30;1.00
21403;DHT22;10862;51.886;17.078;2023-12-28T01:54:36;3.30;1.00
21403;DHT22;10862;51.886;17.078;2023-12-28T01:57:03;3.30;1.00
21403;DHT22;10862;51.886;17.078;2023-12-28T01:59:30;3.30;1.00
21403;DHT22;10862;51.886;17.078;2023-12-28T02:01:57;3.30;1.00
21403;DHT22;10862;51.886;17.078;2023-12-28T02:04:23;3.30;1.00
21403;DHT22;10862;51.886;17.078;2023-12-28T02:06:57;3.20;1.00
21403;DHT22;10862;51.886;17.078;2023-12-28T02:09:23;3.30;1.00
21403;DHT22;10862;51.886;17.078;2023-12-28T02:11:49;3.30;1.00
21403;DHT22;10862;51.886;17.078;2023-12-28T02:14:15;3.30;1.00
21403;DHT22;10862;51.886;17.078;2023-12-28T02:16:46;3.20;1.00
21403;DHT22;10862;51.886;17.078;2023-12-28T02:19:29;3.30;1.00
21403;DHT22;10862;51.886;17.078;2023-12-28T02:21:59;3.30;1.00
21403;DHT22;10862;51.886;17.078;2023-12-28T02:24:25;3.20;1.00
21403;DHT22;10862;51.886;17.078;2023-12-28T02:26:50;3.30;1.00
21403;DHT22;10862;51.886;17.078;2023-12-28T02:29:16;3.30;1.00
21403;DHT22;10862;51.886;17.078;2023-12-28T02:31:49;3.30;1.00
21403;DHT22;10862;51.886;17.078;2023-12-28T02:34:25;3.20;1.00
21403;DHT22;10862;51.886;17.078;2023-12-28T02:36:52;3.20;1.00
21403;DHT22;10862;51.886;17.078;2023-12-28T02:39:20;3.20;1.00
21403;DHT22;10862;51.886;17.078;2023-12-28T02:41:47;3.20;1.00
21403;DHT22;10862;51.886;17.078;2023-12-28T02:44:13;3.20;1.00
21403;DHT22;10862;51.886;17.078;2023-12-28T02:46:38;3.10;1.00
21403;DHT22;10862;51.886;17.078;2023-12-28T02:49:04;3.20;1.00
21403;DHT22;10862;51.886;17.078;2023-12-28T02:51:30;3.10;1.00
21403;DHT22;10862;51.886;17.078;2023-12-28T02:53:55;3.20;1.00
21403;DHT22;10862;51.886;17.078;2023-12-28T02:56:21;3.30;1.00
21403;DHT22;10862;51.886;17.078;2023-12-28T02:58:47;3.30;1.00
21403;DHT22;10862;51.886;17.078;2023-12-28T03:01:12;3.30;1.00
21403;DHT22;10862;51.886;17.078;2023-12-28T03:03:38;3.30;1.00
21403;DHT22;10862;51.886;17.078;2023-12-28T03:06:04;3.30;1.00
21403;DHT22;10862;51.886;17.078;2023-12-28T03:08:29;3.30;1.00
21403;DHT22;10862;51.886;17.078;2023-12-28T03:10:55;3.20;1.00
21403;DHT22;10862;51.886;17.078;2023-12-28T03:13:21;3.40;1.00
21403;DHT22;10862;51.886;17.078;2023-12-28T03:15:47;3.20;1.00
21403;DHT22;10862;51.886;17.078;2023-12-28T03:18:12;3.20;1.00
21403;DHT22;10862;51.886;17.078;2023-12-28T03:20:38;3.20;1.00
21403;DHT22;10862;51.886;17.078;2023-12-28T03:23:03;3.20;1.00
21403;DHT22;10862;51.886;17.078;2023-12-28T03:25:30;3.30;1.00
21403;DHT22;10862;51.886;17.078;2023-12-28T03:27:55;3.20;1.00
21403;DHT22;10862;51.886;17.078;2023-12-28T03:30:21;3.20;1.00
21403;DHT22;10862;51.886;17.078;2023-12-28T03:32:46;3.10;1.00
21403;DHT22;10862;51.886;17.078;2023-12-28T03:35:12;3.10;16.20
21403;DHT22;10862;51.886;17.078;2023-12-28T03:37:38;3.10;23.40
21403;DHT22;10862;51.886;17.078;2023-12-28T03:40:04;3.20;31.80
21403;DHT22;10862;51.886;17.078;2023-12-28T03:42:30;3.20;31.20
21403;DHT22;10862;51.886;17.078;2023-12-28T03:44:55;3.20;26.00
21403;DHT22;10862;51.886;17.078;2023-12-28T03:47:21;3.20;21.70
21403;DHT22;10862;51.886;17.078;2023-12-28T03:49:48;3.40;11.90
21403;DHT22;10862;51.886;17.078;2023-12-28T03:52:14;3.30;1.00
21403;DHT22;10862;51.886;17.078;2023-12-28T03:54:39;3.30;1.00
21403;DHT22;10862;51.886;17.078;2023-12-28T03:57:05;3.40;1.00
21403;DHT22;10862;51.886;17.078;2023-12-28T03:59:31;3.40;1.00
21403;DHT22;10862;51.886;17.078;2023-12-28T04:01:56;3.70;1.00
21403;DHT22;10862;51.886;17.078;2023-12-28T04:04:22;3.70;1.00
21403;DHT22;10862;51.886;17.078;2023-12-28T04:06:48;3.80;1.00
21403;DHT22;10862;51.886;17.078;2023-12-28T04:09:14;3.80;1.00
21403;DHT22;10862;51.886;17.078;2023-12-28T04:11:39;3.80;1.00
21403;DHT22;10862;51.886;17.078;2023-12-28T04:14:05;3.90;1.00
21403;DHT22;10862;51.886;17.078;2023-12-28T04:16:30;3.90;1.00
21403;DHT22;10862;51.886;17.078;2023-12-28T04:18:57;3.90;1.00
21403;DHT22;10862;51.886;17.078;2023-12-28T04:21:22;3.90;1.00
21403;DHT22;10862;51.886;17.078;2023-12-28T04:23:48;3.90;1.00
21403;DHT22;10862;51.886;17.078;2023-12-28T04:26:14;4.00;1.00
21403;DHT22;10862;51.886;17.078;2023-12-28T04:28:40;4.00;1.00
21403;DHT22;10862;51.886;17.078;2023-12-28T04:31:06;3.90;1.00
21403;DHT22;10862;51.886;17.078;2023-12-28T04:33:32;4.00;1.00
21403;DHT22;10862;51.886;17.078;2023-12-28T04:36:01;4.10;1.00
21403;DHT22;10862;51.886;17.078;2023-12-28T04:38:29;4.10;1.00
21403;DHT22;10862;51.886;17.078;2023-12-28T04:40:54;4.00;1.00
21403;DHT22;10862;51.886;17.078;2023-12-28T04:43:20;4.10;1.00
21403;DHT22;10862;51.886;17.078;2023-12-28T04:45:46;4.10;99.90
21403;DHT22;10862;51.886;17.078;2023-12-28T04:48:11;4.10;99.90
21403;DHT22;10862;51.886;17.078;2023-12-28T04:50:37;4.00;99.90
21403;DHT22;10862;51.886;17.078;2023-12-28T04:53:03;3.90;99.90
21403;DHT22;10862;51.886;17.078;2023-12-28T04:55:28;3.90;1.00
21403;DHT22;10862;51.886;17.078;2023-12-28T04:57:54;3.80;1.00
21403;DHT22;10862;51.886;17.078;2023-12-28T05:00:20;3.80;1.00
21403;DHT22;10862;51.886;17.078;2023-12-28T05:02:45;3.70;1.00
21403;DHT22;10862;51.886;17.078;2023-12-28T05:05:12;3.80;1.00
21403;DHT22;10862;51.886;17.078;2023-12-28T05:07:37;3.80;1.00
21403;DHT22;10862;51.886;17.078;2023-12-28T05:10:04;3.90;1.00
21403;DHT22;10862;51.886;17.078;2023-12-28T05:12:30;3.80;1.00
21403;DHT22;10862;51.886;17.078;2023-12-28T05:14:55;3.70;1.00
21403;DHT22;10862;51.886;17.078;2023-12-28T05:17:21;3.80;1.00
21403;DHT22;10862;51.886;17.078;2023-12-28T05:19:46;3.90;1.00
21403;DHT22;10862;51.886;17.078;2023-12-28T05:22:12;4.00;99.90
21403;DHT22;10862;51.886;17.078;2023-12-28T05:24:38;4.00;99.90
21403;DHT22;10862;51.886;17.078;2023-12-28T05:27:04;4.10;99.90
21403;DHT22;10862;51.886;17.078;2023-12-28T05:29:29;4.10;99.40
21403;DHT22;10862;51.886;17.078;2023-12-28T05:31:55;4.10;1.00
21403;DHT22;10862;51.886;17.078;2023-12-28T05:34:20;4.10;1.00
21403;DHT22;10862;51.886;17.078;2023-12-28T05:36:46;4.20;1.00
21403;DHT22;10862;51.886;17.078;2023-12-28T05:39:12;4.20;1.00
21403;DHT22;10862;51.886;17.078;2023-12-28T05:41:40;4.30;1.00
21403;DHT22;10862;51.886;17.078;2023-12-28T05:44:06;4.40;99.90
21403;DHT22;10862;51.886;17.078;2023-12-28T05:46:32;4.40;99.50
21403;DHT22;10862;51.886;17.078;2023-12-28T05:48:58;4.50;99.90
21403;DHT22;10862;51.886;17.078;2023-12-28T05:51:23;4.30;99.90
21403;DHT22;10862;51.886;17.078;2023-12-28T05:53:49;4.30;99.90
21403;DHT22;10862;51.886;17.078;2023-12-28T05:56:14;4.40;26.40
21403;DHT22;10862;51.886;17.078;2023-12-28T05:58:40;4.50;1.00
21403;DHT22;10862;51.886;17.078;2023-12-28T06:01:06;4.50;1.00
21403;DHT22;10862;51.886;17.078;2023-12-28T06:03:32;4.60;99.90
21403;DHT22;10862;51.886;17.078;2023-12-28T06:05:58;4.70;1.00
21403;DHT22;10862;51.886;17.078;2023-12-28T06:08:23;4.70;1.00
21403;DHT22;10862;51.886;17.078;2023-12-28T06:10:49;4.70;99.90
21403;DHT22;10862;51.886;17.078;2023-12-28T06:13:15;4.80;1.00
21403;DHT22;10862;51.886;17.078;2023-12-28T06:15:41;4.80;1.00
21403;DHT22;10862;51.886;17.078;2023-12-28T06:18:06;4.80;99.90
21403;DHT22;10862;51.886;17.078;2023-12-28T06:20:32;4.90;99.90
21403;DHT22;10862;51.886;17.078;2023-12-28T06:22:58;4.90;99.90
21403;DHT22;10862;51.886;17.078;2023-12-28T06:25:23;4.90;1.00
21403;DHT22;10862;51.886;17.078;2023-12-28T06:27:49;5.00;1.00
21403;DHT22;10862;51.886;17.078;2023-12-28T06:30:15;5.00;1.00
21403;DHT22;10862;51.886;17.078;2023-12-28T06:32:40;5.00;99.90
21403;DHT22;10862;51.886;17.078;2023-12-28T06:35:06;5.20;99.90
21403;DHT22;10862;51.886;17.078;2023-12-28T06:37:32;5.20;1.00
21403;DHT22;10862;51.886;17.078;2023-12-28T06:39:57;5.20;99.90
21403;DHT22;10862;51.886;17.078;2023-12-28T06:42:23;5.30;99.90
21403;DHT22;10862;51.886;17.078;2023-12-28T06:44:49;5.30;51.50
21403;DHT22;10862;51.886;17.078;2023-12-28T06:47:15;5.40;1.00
21403;DHT22;10862;51.886;17.078;2023-12-28T06:49:40;5.50;99.90
21403;DHT22;10862;51.886;17.078;2023-12-28T06:52:06;5.60;99.90
21403;DHT22;10862;51.886;17.078;2023-12-28T06:54:32;5.80;1.00
21403;DHT22;10862;51.886;17.078;2023-12-28T06:56:57;5.90;1.00
21403;DHT22;10862;51.886;17.078;2023-12-28T06:59:23;5.80;1.00
21403;DHT22;10862;51.886;17.078;2023-12-28T07:01:49;5.90;99.90
21403;DHT22;10862;51.886;17.078;2023-12-28T07:04:15;6.00;99.90
21403;DHT22;10862;51.886;17.078;2023-12-28T07:06:41;6.00;99.90
21403;DHT22;10862;51.886;17.078;2023-12-28T07:09:06;5.90;1.00
21403;DHT22;10862;51.886;17.078;2023-12-28T07:11:32;5.90;99.90
21403;DHT22;10862;51.886;17.078;2023-12-28T07:13:58;5.80;1.00
21403;DHT22;10862;51.886;17.078;2023-12-28T07:16:23;6.00;1.00
21403;DHT22;10862;51.886;17.078;2023-12-28T07:18:49;5.90;99.90
21403;DHT22;10862;51.886;17.078;2023-12-28T07:21:15;5.90;1.00
21403;DHT22;10862;51.886;17.078;2023-12-28T07:23:40;5.90;99.90
21403;DHT22;10862;51.886;17.078;2023-12-28T07:26:06;5.90;99.90
21403;DHT22;10862;51.886;17.078;2023-12-28T07:28:32;5.90;99.90
21403;DHT22;10862;51.886;17.078;2023-12-28T07:30:57;6.00;1.00
21403;DHT22;10862;51.886;17.078;2023-12-28T07:33:23;6.00;99.90
21403;DHT22;10862;51.886;17.078;2023-12-28T07:35:48;6.20;1.00
21403;DHT22;10862;51.886;17.078;2023-12-28T07:38:14;6.10;1.00
21403;DHT22;10862;51.886;17.078;2023-12-28T07:40:40;6.20;1.00
21403;DHT22;10862;51.886;17.078;2023-12-28T07:43:06;6.30;1.00
21403;DHT22;10862;51.886;17.078;2023-12-28T07:45:32;6.20;1.00
21403;DHT22;10862;51.886;17.078;2023-12-28T07:48:01;6.40;1.00
21403;DHT22;10862;51.886;17.078;2023-12-28T07:50:27;6.40;99.90
21403;DHT22;10862;51.886;17.078;2023-12-28T07:52:52;6.60;87.60
21403;DHT22;10862;51.886;17.078;2023-12-28T07:55:18;6.70;1.00
21403;DHT22;10862;51.886;17.078;2023-12-28T07:57:44;6.60;1.00
21403;DHT22;10862;51.886;17.078;2023-12-28T08:00:11;6.70;1.00
21403;DHT22;10862;51.886;17.078;2023-12-28T08:02:37;6.70;1.00
21403;DHT22;10862;51.886;17.078;2023-12-28T08:05:04;6.90;1.00
21403;DHT22;10862;51.886;17.078;2023-12-28T08:07:30;6.70;1.00
21403;DHT22;10862;51.886;17.078;2023-12-28T08:09:55;6.80;1.00
21403;DHT22;10862;51.886;17.078;2023-12-28T08:12:21;6.80;1.00
21403;DHT22;10862;51.886;17.078;2023-12-28T08:14:47;7.00;1.00
21403;DHT22;10862;51.886;17.078;2023-12-28T08:17:13;6.90;23.50
21403;DHT22;10862;51.886;17.078;2023-12-28T08:19:38;6.90;94.80
21403;DHT22;10862;51.886;17.078;2023-12-28T08:22:04;6.90;99.90
21403;DHT22;10862;51.886;17.078;2023-12-28T08:24:30;6.90;55.10
21403;DHT22;10862;51.886;17.078;2023-12-28T08:26:55;7.00;1.00
21403;DHT22;10862;51.886;17.078;2023-12-28T08:29:25;7.00;1.00
21403;DHT22;10862;51.886;17.078;2023-12-28T08:31:50;7.20;1.00
21403;DHT22;10862;51.886;17.078;2023-12-28T08:34:16;7.40;1.00
21403;DHT22;10862;51.886;17.078;2023-12-28T08:36:42;7.40;1.00
21403;DHT22;10862;51.886;17.078;2023-12-28T08:39:07;7.50;99.90
21403;DHT22;10862;51.886;17.078;2023-12-28T08:41:33;7.60;99.90
21403;DHT22;10862;51.886;17.078;2023-12-28T08:43:59;7.70;99.90
21403;DHT22;10862;51.886;17.078;2023-12-28T08:46:25;7.70;99.90
21403;DHT22;10862;51.886;17.078;2023-12-28T08:48:50;7.90;99.90
21403;DHT22;10862;51.886;17.078;2023-12-28T08:51:16;7.80;27.20
21403;DHT22;10862;51.886;17.078;2023-12-28T08:53:42;7.80;18.10
21403;DHT22;10862;51.886;17.078;2023-12-28T08:56:18;7.90;15.80
21403;DHT22;10862;51.886;17.078;2023-12-28T08:58:45;7.90;41.70
21403;DHT22;10862;51.886;17.078;2023-12-28T09:01:19;8.10;1.00
21403;DHT22;10862;51.886;17.078;2023-12-28T09:03:51;8.00;1.00
21403;DHT22;10862;51.886;17.078;2023-12-28T09:06:17;8.00;26.70
21403;DHT22;10862;51.886;17.078;2023-12-28T09:08:44;8.00;9.40
21403;DHT22;10862;51.886;17.078;2023-12-28T09:11:10;8.10;99.90
21403;DHT22;10862;51.886;17.078;2023-12-28T09:13:37;8.10;1.00
21403;DHT22;10862;51.886;17.078;2023-12-28T09:16:03;8.10;1.00
21403;DHT22;10862;51.886;17.078;2023-12-28T09:18:29;8.10;29.90
21403;DHT22;10862;51.886;17.078;2023-12-28T09:20:54;8.20;1.00
21403;DHT22;10862;51.886;17.078;2023-12-28T09:23:20;8.20;1.00
21403;DHT22;10862;51.886;17.078;2023-12-28T09:25:46;8.30;1.00
21403;DHT22;10862;51.886;17.078;2023-12-28T09:28:11;8.30;1.00
21403;DHT22;10862;51.886;17.078;2023-12-28T09:30:38;8.30;1.00
21403;DHT22;10862;51.886;17.078;2023-12-28T09:33:04;8.30;1.00
21403;DHT22;10862;51.886;17.078;2023-12-28T09:35:29;8.40;1.00
21403;DHT22;10862;51.886;17.078;2023-12-28T09:37:55;8.40;1.00
21403;DHT22;10862;51.886;17.078;2023-12-28T09:40:21;8.60;1.00
21403;DHT22;10862;51.886;17.078;2023-12-28T09:45:25;8.50;1.00
21403;DHT22;10862;51.886;17.078;2023-12-28T09:47:51;8.50;1.00
21403;DHT22;10862;51.886;17.078;2023-12-28T09:50:18;8.60;1.00
21403;DHT22;10862;51.886;17.078;2023-12-28T09:52:44;8.60;1.00
21403;DHT22;10862;51.886;17.078;2023-12-28T09:55:10;8.80;1.00
21403;DHT22;10862;51.886;17.078;2023-12-28T09:57:37;8.90;1.00
21403;DHT22;10862;51.886;17.078;2023-12-28T10:00:03;9.00;1.00
21403;DHT22;10862;51.886;17.078;2023-12-28T10:02:32;9.00;1.00
21403;DHT22;10862;51.886;17.078;2023-12-28T10:04:59;9.10;99.90
21403;DHT22;10862;51.886;17.078;2023-12-28T10:07:24;9.10;99.90
21403;DHT22;10862;51.886;17.078;2023-12-28T10:09:51;9.20;99.90
21403;DHT22;10862;51.886;17.078;2023-12-28T10:12:18;9.20;99.90
21403;DHT22;10862;51.886;17.078;2023-12-28T10:14:43;9.20;99.90
21403;DHT22;10862;51.886;17.078;2023-12-28T10:17:09;9.30;99.90
21403;DHT22;10862;51.886;17.078;2023-12-28T10:19:36;9.20;99.90
21403;DHT22;10862;51.886;17.078;2023-12-28T10:22:01;9.30;99.90
21403;DHT22;10862;51.886;17.078;2023-12-28T10:24:27;9.40;99.90
21403;DHT22;10862;51.886;17.078;2023-12-28T10:26:53;9.50;99.90
21403;DHT22;10862;51.886;17.078;2023-12-28T10:29:19;9.60;99.90
21403;DHT22;10862;51.886;17.078;2023-12-28T10:31:44;9.70;99.90
21403;DHT22;10862;51.886;17.078;2023-12-28T10:34:14;9.50;99.90
21403;DHT22;10862;51.886;17.078;2023-12-28T10:36:40;9.40;99.90
21403;DHT22;10862;51.886;17.078;2023-12-28T10:39:09;9.40;99.90
21403;DHT22;10862;51.886;17.078;2023-12-28T10:41:37;9.50;99.90
21403;DHT22;10862;51.886;17.078;2023-12-28T10:44:05;9.40;99.90
21403;DHT22;10862;51.886;17.078;2023-12-28T10:46:32;9.20;99.90
21403;DHT22;10862;51.886;17.078;2023-12-28T10:49:18;9.30;99.90
21403;DHT22;10862;51.886;17.078;2023-12-28T10:51:50;9.30;99.90
21403;DHT22;10862;51.886;17.078;2023-12-28T11:02:28;9.40;99.90
21403;DHT22;10862;51.886;17.078;2023-12-28T11:04:59;9.50;99.90
21403;DHT22;10862;51.886;17.078;2023-12-28T11:07:26;9.50;99.90
21403;DHT22;10862;51.886;17.078;2023-12-28T11:09:59;9.40;99.90
21403;DHT22;10862;51.886;17.078;2023-12-28T11:12:26;9.30;99.90
21403;DHT22;10862;51.886;17.078;2023-12-28T11:14:53;9.50;99.90
21403;DHT22;10862;51.886;17.078;2023-12-28T11:17:20;9.50;99.90
21403;DHT22;10862;51.886;17.078;2023-12-28T11:19:48;9.40;99.90
21403;DHT22;10862;51.886;17.078;2023-12-28T11:22:15;9.40;99.90
21403;DHT22;10862;51.886;17.078;2023-12-28T11:24:41;9.40;99.90
21403;DHT22;10862;51.886;17.078;2023-12-28T11:27:06;9.30;1.00
21403;DHT22;10862;51.886;17.078;2023-12-28T11:29:32;9.20;1.00
21403;DHT22;10862;51.886;17.078;2023-12-28T11:31:59;9.10;1.00
21403;DHT22;10862;51.886;17.078;2023-12-28T11:34:28;9.00;1.00
21403;DHT22;10862;51.886;17.078;2023-12-28T11:36:55;9.00;1.00
21403;DHT22;10862;51.886;17.078;2023-12-28T11:39:41;9.00;1.00
21403;DHT22;10862;51.886;17.078;2023-12-28T11:42:10;9.10;1.00
21403;DHT22;10862;51.886;17.078;2023-12-28T11:44:43;9.00;1.00
21403;DHT22;10862;51.886;17.078;2023-12-28T11:47:16;9.10;1.00
21403;DHT22;10862;51.886;17.078;2023-12-28T11:49:42;9.10;1.00
21403;DHT22;10862;51.886;17.078;2023-12-28T11:52:25;9.10;1.00
21403;DHT22;10862;51.886;17.078;2023-12-28T11:54:51;9.10;1.00
21403;DHT22;10862;51.886;17.078;2023-12-28T11:57:17;9.20;1.00
21403;DHT22;10862;51.886;17.078;2023-12-28T11:59:43;9.20;1.00
21403;DHT22;10862;51.886;17.078;2023-12-28T12:02:09;9.10;1.00
21403;DHT22;10862;51.886;17.078;2023-12-28T12:04:35;9.30;1.00
21403;DHT22;10862;51.886;17.078;2023-12-28T12:07:02;9.20;1.00
21403;DHT22;10862;51.886;17.078;2023-12-28T12:09:29;9.20;1.00
21403;DHT22;10862;51.886;17.078;2023-12-28T12:12:03;9.10;37.90
21403;DHT22;10862;51.886;17.078;2023-12-28T12:14:29;9.20;49.00
21403;DHT22;10862;51.886;17.078;2023-12-28T12:16:59;9.20;99.90
21403;DHT22;10862;51.886;17.078;2023-12-28T12:19:25;9.30;86.30
21403;DHT22;10862;51.886;17.078;2023-12-28T12:21:55;9.20;99.90
21403;DHT22;10862;51.886;17.078;2023-12-28T12:24:22;9.20;99.90
21403;DHT22;10862;51.886;17.078;2023-12-28T12:26:49;9.20;99.90
21403;DHT22;10862;51.886;17.078;2023-12-28T12:29:15;9.20;99.90
21403;DHT22;10862;51.886;17.078;2023-12-28T12:31:41;9.20;99.90
21403;DHT22;10862;51.886;17.078;2023-12-28T12:34:09;9.20;99.90
21403;DHT22;10862;51.886;17.078;2023-12-28T12:36:35;9.20;99.90
21403;DHT22;10862;51.886;17.078;2023-12-28T12:39:01;9.10;99.90
21403;DHT22;10862;51.886;17.078;2023-12-28T12:41:27;9.10;99.90
21403;DHT22;10862;51.886;17.078;2023-12-28T12:43:53;9.10;1.00
21403;DHT22;10862;51.886;17.078;2023-12-28T12:46:22;9.10;1.00
21403;DHT22;10862;51.886;17.078;2023-12-28T12:48:56;9.10;1.00
21403;DHT22;10862;51.886;17.078;2023-12-28T12:51:23;9.00;1.00
21403;DHT22;10862;51.886;17.078;2023-12-28T12:53:48;9.00;1.00
21403;DHT22;10862;51.886;17.078;2023-12-28T12:56:14;9.00;1.00
21403;DHT22;10862;51.886;17.078;2023-12-28T12:58:40;8.90;1.00
21403;DHT22;10862;51.886;17.078;2023-12-28T13:01:10;8.90;33.60
21403;DHT22;10862;51.886;17.078;2023-12-28T13:03:36;8.90;99.90
21403;DHT22;10862;51.886;17.078;2023-12-28T13:06:04;8.90;99.90
21403;DHT22;10862;51.886;17.078;2023-12-28T13:08:30;8.80;99.90
21403;DHT22;10862;51.886;17.078;2023-12-28T13:10:55;8.70;99.90
21403;DHT22;10862;51.886;17.078;2023-12-28T13:13:21;8.70;99.90
21403;DHT22;10862;51.886;17.078;2023-12-28T13:15:47;8.80;99.90
21403;DHT22;10862;51.886;17.078;2023-12-28T13:18:13;8.80;99.90
21403;DHT22;10862;51.886;17.078;2023-12-28T13:20:38;8.80;99.90
21403;DHT22;10862;51.886;17.078;2023-12-28T13:23:04;8.80;99.90
21403;DHT22;10862;51.886;17.078;2023-12-28T13:25:30;8.60;99.90
21403;DHT22;10862;51.886;17.078;2023-12-28T13:27:55;8.60;99.90
21403;DHT22;10862;51.886;17.078;2023-12-28T13:30:21;8.60;1.00
21403;DHT22;10862;51.886;17.078;2023-12-28T13:32:54;8.70;99.90
21403;DHT22;10862;51.886;17.078;2023-12-28T13:35:21;8.70;1.00
21403;DHT22;10862;51.886;17.078;2023-12-28T13:37:47;8.70;1.00
21403;DHT22;10862;51.886;17.078;2023-12-28T13:40:12;8.70;1.00
21403;DHT22;10862;51.886;17.078;2023-12-28T13:42:38;8.60;1.00
21403;DHT22;10862;51.886;17.078;2023-12-28T13:45:04;8.60;1.00
21403;DHT22;10862;51.886;17.078;2023-12-28T13:47:34;8.60;1.00
21403;DHT22;10862;51.886;17.078;2023-12-28T13:50:00;8.60;1.00
21403;DHT22;10862;51.886;17.078;2023-12-28T13:52:25;8.50;50.90
21403;DHT22;10862;51.886;17.078;2023-12-28T13:54:51;8.50;99.90
21403;DHT22;10862;51.886;17.078;2023-12-28T13:57:16;8.40;99.90
21403;DHT22;10862;51.886;17.078;2023-12-28T13:59:42;8.30;1.00
21403;DHT22;10862;51.886;17.078;2023-12-28T14:02:08;8.30;1.00
21403;DHT22;10862;51.886;17.078;2023-12-28T14:04:33;8.20;99.90
21403;DHT22;10862;51.886;17.078;2023-12-28T14:06:59;8.10;99.90
21403;DHT22;10862;51.886;17.078;2023-12-28T14:09:24;8.20;99.90
21403;DHT22;10862;51.886;17.078;2023-12-28T14:11:50;8.10;99.90
21403;DHT22;10862;51.886;17.078;2023-12-28T14:14:16;8.00;99.90
21403;DHT22;10862;51.886;17.078;2023-12-28T14:16:42;8.10;99.90
21403;DHT22;10862;51.886;17.078;2023-12-28T14:19:07;8.10;99.90
21403;DHT22;10862;51.886;17.078;2023-12-28T14:21:38;8.10;99.90
21403;DHT22;10862;51.886;17.078;2023-12-28T14:24:04;8.10;99.90
21403;DHT22;10862;51.886;17.078;2023-12-28T14:26:35;8.10;99.90
21403;DHT22;10862;51.886;17.078;2023-12-28T14:29:07;8.00;99.90
21403;DHT22;10862;51.886;17.078;2023-12-28T14:31:33;8.00;99.90
21403;DHT22;10862;51.886;17.078;2023-12-28T14:33:59;8.00;1.00
21403;DHT22;10862;51.886;17.078;2023-12-28T14:36:31;7.90;1.00
21403;DHT22;10862;51.886;17.078;2023-12-28T14:39:02;7.90;1.00
21403;DHT22;10862;51.886;17.078;2023-12-28T14:41:30;7.90;1.00
21403;DHT22;10862;51.886;17.078;2023-12-28T14:43:56;7.80;1.00
21403;DHT22;10862;51.886;17.078;2023-12-28T14:46:26;7.80;99.90
21403;DHT22;10862;51.886;17.078;2023-12-28T14:48:52;7.70;1.00
21403;DHT22;10862;51.886;17.078;2023-12-28T14:51:18;7.70;1.00
21403;DHT22;10862;51.886;17.078;2023-12-28T14:53:44;7.80;1.00
21403;DHT22;10862;51.886;17.078;2023-12-28T14:56:10;7.60;1.00
21403;DHT22;10862;51.886;17.078;2023-12-28T14:58:37;7.60;1.00
21403;DHT22;10862;51.886;17.078;2023-12-28T15:01:03;7.50;99.90
21403;DHT22;10862;51.886;17.078;2023-12-28T15:03:29;7.60;12.30
21403;DHT22;10862;51.886;17.078;2023-12-28T15:05:55;7.60;1.00
21403;DHT22;10862;51.886;17.078;2023-12-28T15:08:25;7.60;99.90
21403;DHT22;10862;51.886;17.078;2023-12-28T15:10:51;7.60;99.90
21403;DHT22;10862;51.886;17.078;2023-12-28T15:13:17;7.50;92.70
21403;DHT22;10862;51.886;17.078;2023-12-28T15:15:43;7.40;1.00
21403;DHT22;10862;51.886;17.078;2023-12-28T15:18:10;7.40;1.00
21403;DHT22;10862;51.886;17.078;2023-12-28T15:20:36;7.40;1.00
21403;DHT22;10862;51.886;17.078;2023-12-28T15:23:02;7.40;1.00
21403;DHT22;10862;51.886;17.078;2023-12-28T15:25:28;7.40;1.00
21403;DHT22;10862;51.886;17.078;2023-12-28T15:27:54;7.40;1.00
21403;DHT22;10862;51.886;17.078;2023-12-28T15:30:20;7.30;99.90
21403;DHT22;10862;51.886;17.078;2023-12-28T15:32:46;7.30;1.00
21403;DHT22;10862;51.886;17.078;2023-12-28T15:35:13;7.20;99.90
21403;DHT22;10862;51.886;17.078;2023-12-28T15:37:39;7.20;99.90
21403;DHT22;10862;51.886;17.078;2023-12-28T15:40:05;7.20;1.00
21403;DHT22;10862;51.886;17.078;2023-12-28T15:42:31;7.00;1.00
21403;DHT22;10862;51.886;17.078;2023-12-28T15:44:56;7.00;1.00